Andreas Schmidt

Olheiro - Eintracht Frankfurt
20 Jan 2028
Quinta-feira
Processo

Personalidade

Adaptabilidade (14) Ambição (17) Controvérsia (12) Lealdade (14) Pressão (10) Profissionalismo (6) Espírito Esportivo (9) Temperamento (17)

Perfil

Estilo de Treinamento Democrático
Licença Continental Pro
Determinação 14
Gestão de Pessoas 9
Motivação 10
Disciplina 15
Satisfação no Trabalho
69%
Fadiga
0%
Função Olheiro
Salário 38.0K p/s
Contrato 14.03.2028

Desempenho

Comportamento Bom
Eficácia do Treinamento
31%
Desenvolvimento do Jogador
65%
Prevenção de Lesões
40%
Implementação Tática
70%

Eventos Recentes

Participou de uma reunião de recrutamento agora
Recomendou um alvo de transferência agora
Recomendou um alvo de transferência agora
Recomendou um alvo de transferência agora
Recomendou um alvo de transferência agora
Negociação de contrato iniciada agora
Participando de desenvolvimento profissional agora
Negociação de contrato iniciada agora

Monitorando agora

215
Jogador Clube Status Habilidade Confiança Observado Última observação Último voto
William Gomes Porto Ativo 151 / 150 40% 2 19.01.2028 -
Kutlwano Letlhaku Ajax Cape Town Ativo 122 / 121 40% 1 19.01.2028 -
Lennart Karl Hamburger SV Ativo 139 / 152 40% 1 19.01.2028 -
Dmitry Pestryakov Dinamo Moscow Ativo 118 / 128 40% 4 10.01.2028 -
Shea Lacey Wolverhampton Ativo 132 / 139 40% 1 10.01.2028 -
Siyabonga Mabena Chippa United Ativo 121 / 123 40% 1 10.01.2028 -
Rodrygo Real Madrid Perdido 164 / 164 67% 1 01.01.2028 -
Jan Virgili Club Brugge Ativo 138 / 143 40% 3 30.12.2027 -
Caleb Yirenkyi Coventry City Ativo 142 / 143 40% 3 30.12.2027 -
Ryan McAidoo Gillingham Ativo 121 / 132 40% 2 30.12.2027 -
David Valencia Alianza Petrolera Ativo 128 / 125 40% 5 29.12.2027 -
Fodé Sylla Sion Ativo 120 / 124 40% 3 29.12.2027 -
Jofre Torrents Ajax Ativo 131 / 134 40% 2 28.12.2027 -
Trey Nyoni Rotherham United Ativo 137 / 147 40% 3 28.12.2027 -
Eduardo Felicíssimo Sporting CP Ativo 121 / 124 40% 1 28.12.2027 -
Luca Williams-Barnett Tranmere Rovers Ativo 121 / 128 40% 2 27.12.2027 -
Nikolaus Wurmbrand Charleroi Ativo 125 / 127 40% 2 27.12.2027 -
Olivier Mambwa Young Boys Ativo 110 / 121 40% 6 25.12.2027 -
Noahkai Banks Hamburger SV Ativo 138 / 144 40% 4 25.12.2027 -
Myles Lewis-Skelly Birmingham Ativo 154 / 158 40% 5 24.12.2027 -
Marc Bernal Real Sociedad Ativo 148 / 159 40% 6 24.12.2027 -
Axel Kayombo Sturm Graz Ativo 113 / 116 40% 1 24.12.2027 -
Kauã Moraes Cruzeiro Ativo 128 / 131 40% 5 22.12.2027 -
Ayden Heaven Luton Town Ativo 147 / 155 40% 6 22.12.2027 -
Giovanni Leoni Bradford City Ativo 140 / 149 40% 3 22.12.2027 -
Mateo Silvetti Los Angeles Football Club Ativo 128 / 122 40% 1 22.12.2027 -
Kevin Vazquez Cruz Azul Ativo 138 / 132 40% 4 21.12.2027 -
Héctor Fort Real Sociedad Ativo 141 / 144 40% 5 20.12.2027 -
Esquerdinha Shrewsbury Town Ativo 120 / 132 40% 3 19.12.2027 -
Bahia Criciuma Ativo 115 / 118 40% 3 16.12.2027 -
Archie Gray Derby County Ativo 152 / 160 40% 4 13.12.2027 -
Ronan Kpakio Cardiff City Ativo 122 / 125 40% 2 13.12.2027 -
Josh Nichols Tranmere Rovers Ativo 121 / 125 40% 5 11.12.2027 -
Izan Merino Málaga Ativo 130 / 135 40% 3 09.12.2027 -
Sebastián Ramírez Jaguares Ativo 109 / 115 40% 4 09.12.2027 -
Leon Grgić Sturm Graz Ativo 130 / 134 40% 1 09.12.2027 -
Clement Bischoff Red Bull Salzburg Ativo 130 / 136 40% 1 09.12.2027 -
Matteo Pérez Vinlöf Dinamo Zagreb Ativo 126 / 125 40% 2 03.12.2027 -
Kauã Elias Anderlecht Ativo 139 / 137 40% 1 03.12.2027 -
Alejandro Almaraz Nueva Chicago Ativo 109 / 118 40% 1 01.12.2027 -
Julien Duranville Olympique Lyonnais Ativo 132 / 142 40% 2 30.11.2027 -
Josh King Chelsea Ativo 143 / 149 40% 1 30.11.2027 -
Dani Díaz Real Sociedad Ativo 119 / 127 40% 1 28.11.2027 -
Ethan Nwaneri Arsenal Ativo 151 / 157 40% 1 28.11.2027 -
Jorrel Hato Chelsea Ativo 153 / 160 40% 2 23.11.2027 -
Jaydee Canvot AJ Auxerre Ativo 141 / 145 40% 1 23.11.2027 -
Mads Bomholt Stabaek Ativo 110 / 117 40% 2 19.11.2027 -
Nathan De Cat Hamburger SV Ativo 131 / 135 40% 1 19.11.2027 -
Luis Otávio Colorado Rapids Ativo 111 / 123 40% 3 18.11.2027 -
Seb Ferdinand Chesterfield Ativo 115 / 122 40% 1 18.11.2027 -
Gilberto Mora Atlético Madrid Ativo 136 / 149 40% 1 18.11.2027 -
Juan Morán Godoy Cruz Ativo 107 / 112 40% 1 06.11.2027 -
Christos Mouzakitis Hull City Ativo 137 / 140 40% 1 06.11.2027 -
Agustín Obregón River Plate Ativo 113 / 118 40% 1 03.11.2027 -
Jayden Addai Como Ativo 135 / 136 40% 1 05.07.2027 -
Endrick Real Madrid Ativo 151 / 159 40% 1 05.07.2027 -
Hiroki Ito Bayern Munich Ativo 150 / 155 93% 1 21.06.2027 Aprovar
Jan Bürger Gillingham Ativo 113 / 120 40% 1 21.06.2027 -
Diogo Costa Manchester City Negociando 160 / 160 69% 1 01.06.2027 Aprovar
Lucas Chevalier Eintracht Frankfurt Negociando 153 / 155 70% 1 01.06.2027 Aprovar
Evan N'Dicka Eintracht Frankfurt Ativo 155 / 155 66% 1 01.06.2027 Aprovar
Ricardo Pepi Chelsea Negociando 142 / 145 69% 1 01.06.2027 Aprovar
Moussa Diaby Bayer Leverkusen Ativo 149 / 152 40% 8 29.05.2027 -
Yan Diomandé Real Madrid Ativo 154 / 158 40% 3 29.05.2027 -
Jonathan Dubasin Osasuna Ativo 145 / 139 40% 2 29.05.2027 -
Dušan Vlahović Juventus Ativo 161 / 160 40% 6 29.05.2027 -
Abel Ruiz Girona Ativo 139 / 139 40% 7 29.05.2027 -
Kenan Yıldız Juventus Ativo 162 / 160 40% 4 29.05.2027 -
Gavi Barcelona Ativo 159 / 157 40% 10 28.05.2027 -
Christoph Baumgartner RB Leipzig Ativo 152 / 145 40% 5 28.05.2027 -
Andrés Martín Racing Santander Ativo 138 / 140 40% 7 26.05.2027 -
Giacomo Raspadori Atalanta Ativo 147 / 140 40% 6 26.05.2027 -
Morgan Whittaker Middlesbrough Ativo 132 / 127 40% 7 26.05.2027 -
Tani Oluwaseyi Villarreal Ativo 144 / 146 40% 4 26.05.2027 -
Richard Koné Queens Park Rangers Ativo 125 / 119 40% 1 26.05.2027 -
Matthijs de Ligt Manchester United Ativo 159 / 157 40% 1 26.05.2027 -
Omar El Hilali Espanyol Ativo 149 / 149 40% 1 26.05.2027 -
Borna Knezović Casarano Ativo 104 / 104 40% 1 25.05.2027 -
Ozziel Herrera Tigres Ativo 127 / 118 40% 4 22.05.2027 -
Mees Rijks Bristol Rovers Ativo 111 / 117 40% 3 21.05.2027 -
Tommy Conway Middlesbrough Ativo 129 / 132 40% 1 21.05.2027 -
Nicolas Jackson Aston Villa Ativo 150 / 149 40% 3 20.05.2027 -
Hugo Duro Valencia Ativo 142 / 145 40% 3 19.05.2027 -
Troy Parrott Betis Ativo 139 / 143 40% 1 19.05.2027 -
José Ángel Carmona Sevilla Ativo 148 / 146 40% 6 18.05.2027 -
Miguel Gutiérrez Bayer Leverkusen Ativo 154 / 151 40% 5 18.05.2027 -
Thiago Brentford Ativo 148 / 146 40% 2 18.05.2027 -
Yehor Yarmoliuk Brentford Ativo 147 / 152 40% 1 18.05.2027 -
Urko Izeta Cádiz Ativo 133 / 132 40% 1 18.05.2027 -
Georges Mikautadze Villarreal Ativo 153 / 154 40% 6 17.05.2027 -
Bojan Radulović Huddersfield Town Ativo 114 / 118 40% 1 17.05.2027 -
Tom Cannon Sheffield United Ativo 131 / 127 40% 4 16.05.2027 -
García Pascual Cádiz Ativo 122 / 127 40% 1 16.05.2027 -
Gonçalo Ramos AC Milan Ativo 158 / 158 40% 2 15.05.2027 -
Diego López Rayo Vallecano Ativo 139 / 144 40% 1 15.05.2027 -
Malik Tillman Bayer Leverkusen Ativo 154 / 152 40% 4 13.05.2027 Observar
Ez Abde Girona Ativo 152 / 152 40% 7 13.05.2027 -
Tyrhys Dolan Espanyol Ativo 139 / 144 40% 2 13.05.2027 -
Dango Ouattara Brentford Ativo 149 / 147 40% 4 11.05.2027 -
Germán Valera Elche Ativo 138 / 133 40% 4 08.05.2027 -
Ferran Torres Paris Saint-Germain Ativo 168 / 161 40% 3 08.05.2027 -
Hector Ramirez Newcastle United Ativo 154 / 148 40% 2 07.05.2027 -
Nico González Newcastle United Ativo 161 / 158 40% 3 07.05.2027 -
Amadou Onana Aston Villa Ativo 156 / 154 40% 2 07.05.2027 -
Dom Ballard Leyton Orient Ativo 119 / 125 40% 1 06.05.2027 -
João Pedro Chelsea Ativo 156 / 156 40% 6 03.05.2027 -
Kang-In Lee Atlético Madrid Ativo 162 / 155 40% 3 03.05.2027 -
Luis Vázquez Birmingham Ativo 129 / 124 40% 6 03.05.2027 -
Amine Adli Bournemouth Ativo 145 / 145 40% 1 02.05.2027 -
Jacob Ramsey Newcastle United Ativo 154 / 150 40% 1 29.04.2027 -
Pablo Torre Mallorca Ativo 145 / 142 40% 4 28.04.2027 -
Matheus Cunha Manchester United Ativo 160 / 156 40% 8 28.04.2027 -
Kai Havertz Arsenal Ativo 162 / 166 40% 4 25.04.2027 -
Mandla Mahlangu Ajax Cape Town Ativo 107 / 99 40% 3 24.04.2027 -
Óscar Aranda VfL Wolfsburg Ativo 135 / 130 40% 1 24.04.2027 -
Joaquín Panichelli Le Havre AC Ativo 144 / 142 40% 1 23.04.2027 -
Yousef Salech Cardiff City Ativo 127 / 127 40% 3 20.04.2027 -
Ben Ahmed Kohili Paradou Ativo 103 / 102 40% 2 19.04.2027 -
Will Lankshear Middlesbrough Ativo 125 / 132 40% 2 19.04.2027 -
Senny Mayulu Paris Saint-Germain Ativo 146 / 155 40% 1 19.04.2027 -
Leo Castledine Middlesbrough Ativo 126 / 126 40% 1 19.04.2027 -
Xavi Simons Tottenham Ativo 158 / 156 40% 2 17.04.2027 -
Maroan Sannadi Athletic Bilbao Ativo 137 / 141 40% 1 16.04.2027 -
Ilyas Ansah Hull City Ativo 131 / 136 40% 2 09.04.2027 -
Couhaib Driouech Celta Ativo 136 / 135 40% 2 08.04.2027 -
Takefusa Kubo Real Sociedad Ativo 159 / 158 40% 1 08.04.2027 -
Mikkel Damsgaard Brentford Ativo 146 / 148 40% 2 05.04.2027 -
Cody Gakpo Liverpool Ativo 158 / 153 40% 3 04.04.2027 -
Adrián Niño Málaga Ativo 124 / 128 40% 1 02.04.2027 -
Carlos Vicente Birmingham Ativo 143 / 147 40% 3 01.04.2027 -
Robert Mizo Ashanti Gold Ativo 102 / 95 40% 2 01.04.2027 -
Lorent Tolaj Plymouth Argyle Ativo 122 / 121 40% 1 29.03.2027 -
Justin Njinmah Werder Bremen Ativo 133 / 133 40% 1 27.03.2027 -
Gaspar Gijón Ativo 139 / 136 40% 1 26.03.2027 -
Aune Heggebø West Bromwich Albion Ativo 128 / 132 40% 1 21.03.2027 -
Oihan Sancet Athletic Bilbao Ativo 162 / 154 40% 3 20.03.2027 -
Curtis Jones Inter Ativo 159 / 153 40% 1 20.03.2027 -
Bryan Mbeumo Manchester United Ativo 158 / 162 40% 1 15.03.2027 -
Bradley Barcola Liverpool Ativo 165 / 157 40% 1 13.03.2027 -
Adam Wharton Crystal Palace Ativo 153 / 148 40% 1 12.03.2027 -
Alejandro Balde Barcelona Ativo 157 / 159 40% 1 12.03.2027 -
Sven Botman Newcastle United Ativo 156 / 158 40% 1 09.03.2027 -
Mats Wieffer Brighton Ativo 151 / 145 40% 1 09.03.2027 -
Tino Livramento Newcastle United Ativo 153 / 158 40% 1 09.03.2027 -
Pol Lozano Espanyol Ativo 140 / 139 40% 1 08.03.2027 -
Óscar Mingueza Crystal Palace Ativo 149 / 149 40% 1 08.03.2027 -
Wesley Fofana Chelsea Ativo 165 / 167 40% 3 06.03.2027 -
Levi Colwill Chelsea Ativo 157 / 158 40% 1 06.03.2027 -
Miloš Kerkez Liverpool Ativo 157 / 163 40% 1 06.03.2027 -
Willian Pacho Paris Saint-Germain Ativo 166 / 160 40% 2 05.03.2027 -
Loïc Badé Bayer Leverkusen Ativo 157 / 155 40% 1 05.03.2027 -
Erick Sánchez OGC Nice Ativo 140 / 141 40% 1 03.03.2027 -
Fran García Betis Ativo 153 / 145 40% 1 03.03.2027 -
Anthony Gordon Barcelona Ativo 165 / 161 40% 1 02.03.2027 -
Matt O'Riley Brighton Ativo 146 / 138 40% 1 02.03.2027 -
Francisco Conceição Juventus Ativo 158 / 155 40% 1 02.03.2027 -
Mateus Mané Manchester United Ativo 133 / 137 40% 1 02.03.2027 -
Hugo Álvarez Celta Ativo 144 / 144 40% 3 26.02.2027 -
Dominik Szoboszlai Liverpool Ativo 166 / 161 40% 1 25.02.2027 -
Jeremie Frimpong Liverpool Ativo 158 / 162 40% 2 24.02.2027 -
Flavien-Enzo Boyomo Osasuna Ativo 149 / 153 40% 1 24.02.2027 -
Giannis Konstantelias Borussia Dortmund Ativo 141 / 148 40% 1 21.02.2027 -
Ayoub Oufkir AZ Ativo 128 / 137 40% 1 20.02.2027 -
Assane Diao Lazio Ativo 145 / 144 40% 1 20.02.2027 -
Marc Guéhi Manchester City Ativo 165 / 168 40% 2 15.02.2027 -
Johnny Cardoso Atlético Madrid Ativo 156 / 151 40% 3 15.02.2027 -
Javi Rodríguez Celta Ativo 151 / 147 40% 1 15.02.2027 -
Rico Lewis Manchester City Ativo 149 / 158 40% 1 13.02.2027 -
Álex Baena Atlético Madrid Ativo 161 / 166 40% 1 11.02.2027 -
Ryan Sessegnon Fulham Ativo 146 / 148 40% 1 08.02.2027 -
Yeremy Pino Crystal Palace Ativo 148 / 145 40% 1 05.02.2027 -
Borja Sainz Fiorentina Ativo 148 / 143 40% 1 04.02.2027 -
João Neves Paris Saint-Germain Ativo 168 / 161 40% 1 04.02.2027 -
Philipp Treu SC Freiburg Ativo 138 / 141 40% 1 04.02.2027 -
Ryan Gravenberch Liverpool Ativo 160 / 157 40% 1 03.02.2027 -
Albert Sambi Lokonga Hamburger SV Ativo 142 / 134 40% 1 03.02.2027 -
Pierre Kalulu Juventus Ativo 158 / 157 40% 1 01.02.2027 -
Daniil Khudyakov Sturm Graz Ativo 121 / 119 40% 3 31.12.2026 -
Niklas Steffen Thun Ativo 117 / 112 40% 2 31.12.2026 -
Erick Reyes Toluca Ativo 137 / 142 40% 4 27.12.2026 -
Robin Roefs Sunderland Ativo 143 / 146 40% 1 27.12.2026 -
Cezary Miszta Rio Ave Ativo 129 / 130 40% 1 26.12.2026 -
Niklas Hedl Zurich Ativo 126 / 120 40% 3 25.12.2026 -
Michael Cooper Sheffield United Ativo 128 / 123 40% 3 25.12.2026 -
Pascal Loretz Luzern Ativo 127 / 128 40% 3 24.12.2026 -
Ben Voll St. Pauli Ativo 116 / 119 40% 2 24.12.2026 -
Radek Vítek Middlesbrough Ativo 131 / 130 40% 6 21.12.2026 -
Lukas Gütlbauer Wolfsberger AC Ativo 114 / 111 40% 6 21.12.2026 -
Julen Agirrezabala Racing Santander Ativo 147 / 137 40% 5 21.12.2026 -
Matěj Kovář PSV Ativo 138 / 136 40% 1 19.12.2026 -
Justin Hammel Grasshopper Ativo 124 / 122 40% 2 16.12.2026 Mais informações
Igor Nikić Mirandés Ativo 117 / 112 40% 1 13.12.2026 -
Beau Reus Waasland-Beveren Ativo 127 / 132 40% 1 10.12.2026 -
Guilherme Fernandes Córdoba Ativo 128 / 134 40% 1 10.12.2026 -
Jonmi Magunagoitia Eibar Ativo 124 / 126 40% 3 08.12.2026 -
Lukas Jensen Millwall Ativo 119 / 123 40% 1 08.12.2026 -
Stefan Drljača VfB Stuttgart Ativo 120 / 122 40% 1 05.12.2026 -
Gianluigi Donnarumma Manchester City Ativo 171 / 176 40% 2 03.12.2026 -
Murphy Cooper Plymouth Argyle Ativo 110 / 116 40% 2 01.12.2026 -
Marius Wolf FC Augsburg Ativo 138 / 138 30% 1 / 1m 18.11.2026 -
Joan García Barcelona Ativo 161 / 167 40% 2 17.11.2026 -
Gaëtan Poussin Red Star Ativo 123 / 120 40% 1 07.11.2026 -
Grégoire Coudert Burnley Ativo 126 / 130 40% 2 03.11.2026 -
Hugo Souza Corinthians Ativo 139 / 131 40% 1 03.11.2026 -
Luis Ingolotti Atlético Tucumán Ativo 123 / 123 40% 1 02.11.2026 -
George Wickens Lincoln City Ativo 112 / 113 40% 1 30.10.2026 -
Bradley Mabunda SuperSport United Ativo 108 / 111 40% 1 28.10.2026 -
Mads Hermansen West Ham United Ativo 136 / 130 40% 1 28.10.2026 -
Caoimhin Kelleher Brentford Ativo 147 / 152 40% 1 26.10.2026 -
Unai Marrero Real Sociedad Ativo 128 / 122 40% 1 25.10.2026 -
Senne Lammens Manchester United Ativo 145 / 148 40% 4 18.10.2026 -
Roman Celentano FC Cincinnati Ativo 119 / 116 40% 1 16.10.2026 -
Felipe Parra Envigado Ativo 122 / 117 40% 2 13.10.2026 -
Declan Rice Arsenal Ativo 183 / 178 40% 1 04.08.2026 -
Federico Valverde Real Madrid Ativo 177 / 172 40% 1 04.08.2026 -